Bookmark and Share
Track history (hours):
 

Mineral Faith

Last reported at 2014-Apr-17 20:23 UTC. Time now 2014-Apr-18 08:13 UTC.
Position N 34°53' E 120°07'.

Length 292 m; draft 8.7 m.

Type: Cargo ship. MMSI: 477947500.

NotesDate/timePositionNaut miles runAvg speedWind from/ knotsBaromVisibWave heightAir tempDewpointWater temp
2014-Apr-17 20:23N 34°53' E 120°07'8 9.5
2014-Apr-17 19:32N 34°52' E 119°57'1110.1
2014-Apr-17 18:25N 34°49' E 119°44'9 8.1
2014-Apr-17 17:17N 34°46' E 119°34'7 9.1
2014-Apr-17 16:32N 34°45' E 119°25'0 0.0
2014-Apr-17 04:25N 34°45' E 119°25'0 0.0
2014-Apr-17 03:31N 34°45' E 119°25'0 0.0
2014-Apr-17 02:19N 34°45' E 119°25'0 0.0
2014-Apr-17 01:19N 34°45' E 119°25'0 0.0
2014-Apr-17 00:25N 34°45' E 119°25'0 0.0
2014-Apr-16 16:07N 34°45' E 119°25'0 0.0
2014-Apr-16 08:31N 34°45' E 119°25'0 0.0
2014-Apr-16 07:31N 34°45' E 119°25'0 0.0
2014-Apr-16 06:10N 34°45' E 119°25'0 0.0
2014-Apr-16 05:28N 34°45' E 119°25'0 0.0
2014-Apr-16 04:33N 34°45' E 119°25'0 0.0
2014-Apr-16 03:31N 34°45' E 119°25'0 0.0
2014-Apr-16 02:33N 34°45' E 119°25'0 0.0
2014-Apr-16 01:33N 34°45' E 119°25'0 0.0
2014-Apr-16 00:33N 34°45' E 119°25'0 0.0
2014-Apr-15 23:28N 34°45' E 119°25'0 0.0
2014-Apr-15 22:33N 34°45' E 119°25'0 0.0
2014-Apr-15 21:33N 34°45' E 119°25'0 0.0
2014-Apr-15 20:31N 34°45' E 119°25'0 0.0
2014-Apr-15 19:33N 34°45' E 119°25'0 0.0
2014-Apr-15 18:33N 34°45' E 119°25'0 0.0
2014-Apr-15 17:33N 34°45' E 119°25'0 0.0
2014-Apr-15 16:33N 34°45' E 119°25'0 0.0
2014-Apr-15 15:33N 34°45' E 119°25'0 0.0
2014-Apr-15 14:31N 34°45' E 119°25'0 0.0
2014-Apr-15 12:34N 34°45' E 119°25'0 0.0
2014-Apr-15 11:34N 34°45' E 119°25'0 0.0
2014-Apr-15 10:34N 34°45' E 119°25'0 0.0
2014-Apr-15 09:34N 34°45' E 119°25'0 0.0
2014-Apr-15 08:34N 34°45' E 119°25'0 0.0
2014-Apr-15 07:34N 34°45' E 119°25'0 0.0
2014-Apr-15 06:34N 34°45' E 119°25'0 0.0
2014-Apr-15 05:34N 34°45' E 119°25'0 0.0
2014-Apr-15 03:34N 34°45' E 119°25'0 0.0
2014-Apr-15 02:34N 34°45' E 119°25'0 0.0
2014-Apr-15 01:34N 34°45' E 119°25'0 0.0
2014-Apr-15 00:34N 34°45' E 119°25'0 0.0
2014-Apr-14 23:34N 34°45' E 119°25'0 0.0
2014-Apr-14 22:34N 34°45' E 119°25'0 0.0
2014-Apr-14 21:34N 34°45' E 119°25'0 0.0
2014-Apr-14 19:34N 34°45' E 119°25'0 0.0
2014-Apr-14 18:34N 34°45' E 119°25'0 0.0
2014-Apr-14 17:34N 34°45' E 119°25'0 0.0
2014-Apr-14 16:34N 34°45' E 119°25'0 0.0
2014-Apr-14 15:33N 34°45' E 119°25'0 0.0
2014-Apr-14 14:34N 34°45' E 119°25'0 0.0
2014-Apr-14 13:33N 34°45' E 119°25'0 0.0
2014-Apr-14 11:33N 34°45' E 119°25'0 0.0
2014-Apr-14 10:33N 34°45' E 119°25'6 5.9
2014-Apr-14 09:33N 34°45' E 119°32'1111.1
2014-Apr-14 08:32N 34°50' E 119°45'11 0.8
2014-Apr-13 19:12N 34°53' E 119°57'0 0.1
2014-Apr-13 16:24N 34°53' E 119°57'0 0.1
2014-Apr-13 15:30N 34°53' E 119°57'0 0.1
2014-Apr-13 14:30N 34°53' E 119°57'0 0.1
2014-Apr-13 13:30N 34°53' E 119°57'0 0.0
2014-Apr-13 12:30N 34°53' E 119°57'0 0.0
2014-Apr-13 11:18N 34°53' E 119°57'0 0.1
2014-Apr-13 10:12N 34°53' E 119°57'0 0.1
2014-Apr-13 08:18N 34°53' E 119°57'0 0.1
2014-Apr-13 02:30N 34°53' E 119°57'0 0.1
2014-Apr-13 01:30N 34°53' E 119°57'0 0.0
2014-Apr-12 23:30N 34°53' E 119°57'0 0.0
2014-Apr-12 22:24N 34°53' E 119°57'0 0.1
2014-Apr-12 21:24N 34°53' E 119°57'0 0.1
2014-Apr-12 17:30N 34°53' E 119°57'0 0.1
2014-Apr-12 13:30N 34°53' E 119°57'0 0.0
2014-Apr-12 10:30N 34°53' E 119°57'0 0.1
2014-Apr-12 09:12N 34°53' E 119°57'0 0.1
2014-Apr-12 08:18N 34°53' E 119°57'0 0.1
2014-Apr-12 07:12N 34°53' E 119°57'0 0.1
2014-Apr-12 06:24N 34°53' E 119°57'0 0.0
2014-Apr-12 05:30N 34°53' E 119°57'0 0.0
2014-Apr-12 04:30N 34°53' E 119°57'0 0.1
2014-Apr-12 03:30N 34°53' E 119°57'0 0.1
2014-Apr-12 02:30N 34°53' E 119°57'0 0.1
2014-Apr-12 01:30N 34°53' E 119°57'0 0.1
2014-Apr-12 00:32N 34°53' E 119°57'0 0.1
2014-Apr-11 23:24N 34°53' E 119°57'0 0.0
2014-Apr-11 22:29N 34°53' E 119°57'0 0.1
2014-Apr-11 21:30N 34°53' E 119°57'0 0.1
2014-Apr-11 20:30N 34°53' E 119°57'0 0.1
2014-Apr-11 18:18N 34°53' E 119°57'0 0.1
2014-Apr-11 17:30N 34°53' E 119°57'0 0.0
2014-Apr-11 16:06N 34°53' E 119°57'0 0.1
2014-Apr-11 14:24N 34°53' E 119°57'0 0.1
2014-Apr-11 13:18N 34°53' E 119°57'1 0.8
2014-Apr-11 12:30N 34°53' E 119°58'4 3.9
2014-Apr-11 11:28N 34°53' E 120°03'7 7.2
2014-Apr-11 10:33N 34°56' E 120°10'8 8.4
2014-Apr-11 09:33N 34°59' E 120°19'8 8.4
2014-Apr-11 08:33N 34°60' E 120°29'10 9.5
2014-Apr-11 07:27N 35°01' E 120°42'9 9.9
2014-Apr-11 06:33N 35°01' E 120°53'63 9.9
2014-Apr-11 00:14N 34°51' E 122°08'7 9.6
2014-Apr-10 23:28N 34°49' E 122°17'54 8.9
2014-Apr-10 17:27N 34°15' E 123°08'36 9.2
2014-Apr-10 13:32N 33°43' E 123°28'10 9.5
2014-Apr-10 12:31N 33°35' E 123°34'13 9.7
2014-Apr-10 11:14N 33°24' E 123°41'11 9.6
2014-Apr-10 10:06N 33°14' E 123°46'35 9.6
2014-Apr-10 06:26N 32°40' E 123°56'  

Dump ship's entire track history

sailing weather and tide predictions

Mineral Faith — VRKS4 — position and weather